Terminal Aerodrome Forecast
Issued by NWS Albany, NY

Home | Current Version | Previous Version | Text Only | Print | Product List | Glossary On
Versions: 1 2 3 4 5 6 7 8 9 10 11 12 13 14 15 16 17
000
FTUS41 KALY 221723
TAFPOU
TAF
KPOU 221723Z 2218/2318 27014G22KT P6SM SCT080
     FM230000 31007KT P6SM SKC
     FM230500 27004KT P6SM SKC
     FM231400 28009KT P6SM SKC=

USA.gov is the U.S. government's official web portal to all federal, state and local government web resources and services.